Time;durP1;ratioP1;P1;durP2;ratioP2;P2;SDS_P1;SDS_P2;PMS_P1;PMS_P2;Temp;Humidity;BMP_temperature;BMP_pressure;BME280_temperature;BME280_humidity;BME280_pressure;Samples;Min_cycle;Max_cycle;Signal;HPM_P1;HPM_P2
2022/03/28 00:02:41;;;;;;;38.13;17.52;;;;;;;6.90;70.75;101538.69;8661161;33;20166;-73
2022/03/28 00:07:46;;;;;;;34.72;16.50;;;;;;;6.66;71.75;101534.47;8661742;33;20413;-73
2022/03/28 00:12:49;;;;;;;35.50;17.27;;;;;;;6.54;72.14;101534.09;8663934;33;21064;-73
2022/03/28 00:17:52;;;;;;;36.55;16.65;;;;;;;6.52;72.20;101521.75;8662364;33;20227;-74
2022/03/28 00:22:57;;;;;;;34.35;16.00;;;;;;;6.45;72.47;101518.53;8663481;33;20476;-73
2022/03/28 00:28:00;;;;;;;33.28;16.25;;;;;;;6.50;72.65;101516.50;8662987;33;20490;-73
2022/03/28 00:33:03;;;;;;;34.05;16.90;;;;;;;6.44;71.76;101503.44;8661775;33;20143;-74
2022/03/28 00:38:09;;;;;;;34.05;16.90;;;;;;;6.37;71.06;101502.00;8659849;33;20513;-73
2022/03/28 00:43:12;;;;;;;38.38;16.85;;;;;;;6.33;71.13;101514.59;8670133;33;20709;-73
2022/03/28 00:48:16;;;;;;;31.58;16.42;;;;;;;6.32;71.55;101501.34;8666664;33;20398;-73
2022/03/28 00:53:20;;;;;;;35.33;17.33;;;;;;;6.20;71.85;101494.75;8666073;33;20262;-73
2022/03/28 00:58:23;;;;;;;32.97;16.75;;;;;;;6.26;71.85;101480.28;8661173;33;20409;-73
2022/03/28 01:03:26;;;;;;;40.00;17.45;;;;;;;6.18;71.67;101484.13;8659150;33;20478;-72
2022/03/28 01:08:33;;;;;;;36.55;16.33;;;;;;;6.15;71.35;101483.41;8656937;33;20396;-73
2022/03/28 01:13:38;;;;;;;42.05;19.17;;;;;;;6.03;72.15;101483.94;8658278;33;20479;-73
2022/03/28 01:18:48;;;;;;;33.20;17.20;;;;;;;5.92;72.88;101468.44;8662659;33;21058;-73
2022/03/28 01:23:52;;;;;;;37.38;17.33;;;;;;;5.96;72.92;101464.69;8662522;33;20422;-73
2022/03/28 01:28:56;;;;;;;37.88;18.58;;;;;;;5.89;71.82;101461.44;8662008;33;20469;-73
2022/03/28 01:33:59;;;;;;;35.92;16.13;;;;;;;5.80;71.97;101451.19;8659950;33;20188;-73
2022/03/28 01:39:03;;;;;;;32.80;15.07;;;;;;;5.72;72.25;101440.84;8657473;33;20162;-73
2022/03/28 01:44:07;;;;;;;32.83;15.77;;;;;;;5.62;71.96;101428.88;8609705;33;20527;-73
2022/03/28 01:49:10;;;;;;;37.70;17.13;;;;;;;5.55;72.12;101423.88;8595542;33;20159;-73
2022/03/28 01:54:15;;;;;;;34.00;17.38;;;;;;;5.46;72.19;101418.00;8596188;33;20864;-73
2022/03/28 01:59:18;;;;;;;35.55;15.93;;;;;;;5.41;71.23;101417.34;8596041;33;20435;-72
2022/03/28 02:04:21;;;;;;;29.85;15.30;;;;;;;5.30;70.89;101419.59;8595141;33;20402;-72
2022/03/28 02:09:26;;;;;;;31.27;15.43;;;;;;;5.32;71.25;101412.41;8601411;33;20441;-72
2022/03/28 02:14:29;;;;;;;31.25;13.95;;;;;;;5.35;71.55;101400.72;8602165;33;20131;-72
2022/03/28 02:19:32;;;;;;;29.85;15.50;;;;;;;5.37;71.32;101393.53;8598190;33;20702;-73
2022/03/28 02:24:36;;;;;;;33.83;15.23;;;;;;;5.26;71.29;101386.00;8595973;33;20155;-72
2022/03/28 02:29:39;;;;;;;43.00;17.50;;;;;;;4.92;73.84;101394.53;8596323;33;20182;-74
2022/03/28 02:34:42;;;;;;;37.03;17.23;;;;;;;4.35;75.82;101386.16;8600983;33;20183;-74
2022/03/28 02:39:47;;;;;;;35.75;16.15;;;;;;;4.37;74.99;101382.50;8601070;33;20951;-73
2022/03/28 02:44:51;;;;;;;30.27;15.40;;;;;;;4.27;76.14;101366.97;8600285;33;20182;-73
2022/03/28 02:49:54;;;;;;;40.70;17.05;;;;;;;4.40;75.93;101358.44;8600866;33;20177;-72
2022/03/28 02:54:58;;;;;;;36.30;16.10;;;;;;;4.54;75.57;101357.03;8600610;33;20252;-74
2022/03/28 03:00:01;;;;;;;38.63;16.25;;;;;;;4.69;75.04;101353.75;8599707;33;20994;-73
2022/03/28 03:05:06;;;;;;;38.45;15.88;;;;;;;4.69;74.28;101348.44;8657964;33;20166;-73
2022/03/28 03:10:11;;;;;;;31.67;15.10;;;;;;;4.69;73.36;101348.44;8657717;33;20492;-74
2022/03/28 03:15:14;;;;;;;29.73;14.43;;;;;;;4.67;73.09;101338.78;8658606;33;20758;-73
2022/03/28 03:20:17;;;;;;;33.15;15.27;;;;;;;4.48;73.61;101336.84;8658233;33;20535;-73
2022/03/28 03:25:22;;;;;;;32.90;16.00;;;;;;;4.50;74.24;101324.38;8658069;33;20730;-73
2022/03/28 03:30:25;;;;;;;31.15;16.45;;;;;;;4.59;73.89;101331.97;8660840;33;20183;-73
2022/03/28 03:35:28;;;;;;;38.92;16.95;;;;;;;4.57;73.15;101323.16;8666357;33;21609;-73
2022/03/28 03:40:33;;;;;;;32.47;15.23;;;;;;;4.49;73.13;101333.25;8664386;33;20150;-73
2022/03/28 03:45:36;;;;;;;39.40;17.33;;;;;;;4.38;72.65;101325.69;8660088;33;20186;-73
2022/03/28 03:50:41;;;;;;;36.30;15.93;;;;;;;4.31;73.15;101318.06;8660532;33;20174;-72
2022/03/28 03:55:45;;;;;;;36.70;17.45;;;;;;;4.23;72.72;101306.84;8653601;33;20419;-73
2022/03/28 04:00:49;;;;;;;36.45;17.52;;;;;;;4.09;72.65;101305.59;8653574;33;20483;-72
2022/03/28 04:05:52;;;;;;;30.48;15.02;;;;;;;4.09;72.46;101305.59;8651725;33;20440;-73
2022/03/28 04:10:57;;;;;;;37.53;17.67;;;;;;;4.16;73.18;101295.56;8651432;33;21074;-71
2022/03/28 04:16:00;;;;;;;30.73;15.25;;;;;;;4.21;73.06;101301.59;8649579;33;20414;-72
2022/03/28 04:21:03;;;;;;;33.28;15.55;;;;;;;3.96;74.04;101296.38;8652625;33;20200;-73
2022/03/28 04:26:08;;;;;;;33.25;15.52;;;;;;;3.68;74.87;101297.44;8650569;33;20446;-72
2022/03/28 04:31:11;;;;;;;31.88;15.90;;;;;;;3.76;75.45;101286.50;8655959;33;20208;-72
2022/03/28 04:36:15;;;;;;;33.38;15.85;;;;;;;3.77;75.63;101290.03;8660468;33;21295;-73
2022/03/28 04:41:19;;;;;;;34.42;16.60;;;;;;;3.91;76.17;101274.41;8662878;33;20150;-72
2022/03/28 04:46:22;;;;;;;28.23;14.55;;;;;;;3.94;74.65;101271.63;8672616;33;21050;-72
2022/03/28 04:51:26;;;;;;;32.35;15.85;;;;;;;3.92;75.72;101271.72;8677691;33;21011;-72
2022/03/28 04:56:30;;;;;;;34.25;16.20;;;;;;;3.93;75.96;101262.78;8683779;33;20248;-71
2022/03/28 05:01:33;;;;;;;36.33;17.45;;;;;;;3.56;77.40;101270.44;8672741;33;20433;-72
2022/03/28 05:06:36;;;;;;;30.02;16.58;;;;;;;3.64;77.11;101261.25;8664478;33;20556;-72
2022/03/28 05:11:41;;;;;;;37.45;15.70;;;;;;;3.36;77.87;101263.22;8664252;33;20918;-72
2022/03/28 05:16:44;;;;;;;36.60;15.65;;;;;;;3.32;78.02;101258.94;8657365;33;20245;-72
2022/03/28 05:21:47;;;;;;;38.97;18.38;;;;;;;3.24;78.18;101259.25;8659227;33;20176;-73
2022/03/28 05:26:51;;;;;;;37.45;17.80;;;;;;;3.25;79.21;101253.84;8657555;33;20483;-73
2022/03/28 05:31:54;;;;;;;38.38;17.63;;;;;;;3.48;77.70;101254.78;8660356;33;20468;-73
2022/03/28 05:36:58;;;;;;;34.97;15.50;;;;;;;3.63;76.86;101246.25;8654915;33;20421;-72
2022/03/28 05:42:03;;;;;;;31.67;15.88;;;;;;;3.80;75.93;101258.88;8656977;33;20753;-73
2022/03/28 05:47:07;;;;;;;38.97;16.77;;;;;;;3.81;75.64;101251.75;8653935;33;20420;-73
2022/03/28 05:52:10;;;;;;;30.77;15.07;;;;;;;3.99;76.22;101237.75;8654589;33;21213;-73
2022/03/28 05:57:16;;;;;;;39.30;17.75;;;;;;;4.23;75.80;101241.22;8653331;33;20429;-73
2022/03/28 06:02:19;;;;;;;97.00;23.33;;;;;;;3.94;76.72;101261.84;8655151;33;20193;-72
2022/03/28 06:07:22;;;;;;;95.85;24.05;;;;;;;3.45;79.19;101276.16;8653740;33;20958;-72
2022/03/28 06:12:27;;;;;;;58.85;19.08;;;;;;;3.47;80.64;101264.56;8647979;33;20437;-72
2022/03/28 06:17:30;;;;;;;52.38;19.45;;;;;;;3.48;80.95;101268.06;8647756;33;20179;-73
2022/03/28 06:22:33;;;;;;;74.10;22.65;;;;;;;3.64;80.16;101260.38;8654816;33;20173;-73
2022/03/28 06:27:41;;;;;;;45.38;19.33;;;;;;;3.32;81.32;101265.13;8659022;33;20564;-73
2022/03/28 06:32:45;;;;;;;37.67;18.90;;;;;;;3.85;80.64;101256.06;8671534;33;20412;-73
2022/03/28 06:37:50;;;;;;;26.33;13.80;;;;;;;4.52;79.33;101249.78;8635041;33;20127;-72
2022/03/28 06:42:54;;;;;;;24.13;11.90;;;;;;;5.04;76.12;101240.44;8656514;33;20425;-72
2022/03/28 06:47:58;;;;;;;27.75;13.57;;;;;;;5.42;74.47;101237.84;8654844;33;20467;-72
2022/03/28 06:53:21;;;;;;;26.52;13.40;;;;;;;4.82;74.16;101237.81;8655725;33;20182;-73
2022/03/28 06:58:26;;;;;;;31.73;15.45;;;;;;;5.40;74.52;101247.72;8668518;33;20182;-73
2022/03/28 07:03:30;;;;;;;27.20;13.68;;;;;;;5.90;73.05;101243.63;8668407;33;20176;-74
2022/03/28 07:08:34;;;;;;;25.63;14.15;;;;;;;5.84;72.25;101233.22;8662962;33;22217;-73
2022/03/28 07:13:39;;;;;;;30.85;15.63;;;;;;;6.03;71.63;101238.56;8660435;33;20175;-74
2022/03/28 07:18:42;;;;;;;32.72;15.35;;;;;;;5.69;72.93;101232.19;8662232;33;20232;-72
2022/03/28 07:23:45;;;;;;;46.90;18.90;;;;;;;5.92;73.24;101226.63;8667354;33;20231;-73
2022/03/28 07:28:49;;;;;;;36.45;17.92;;;;;;;6.16;72.93;101226.34;8665769;33;20899;-74
2022/03/28 07:34:29;;;;;;;43.67;20.30;;;;;;;6.32;72.51;101232.66;8669583;33;22075;-73
2022/03/28 07:39:15;;;;;;;60.65;23.02;;;;;;;6.49;72.23;101225.59;8651558;33;20444;-73
2022/03/28 07:44:20;;;;;;;62.42;23.02;;;;;;;6.69;72.02;101216.56;8653375;33;20161;-73
2022/03/28 07:49:24;;;;;;;47.85;21.95;;;;;;;6.72;71.80;101211.97;8626465;33;20459;-73
2022/03/28 07:54:28;;;;;;;44.30;20.08;;;;;;;6.66;71.04;101217.59;8602344;33;20427;-73
2022/03/28 07:59:33;;;;;;;45.47;19.23;;;;;;;6.50;71.73;101209.53;8604876;33;20408;-73
2022/03/28 08:04:37;;;;;;;43.33;19.55;;;;;;;6.59;71.92;101202.84;8601448;33;20220;-73
2022/03/28 08:09:42;;;;;;;49.58;22.08;;;;;;;6.88;71.55;101201.34;8591967;33;20187;-73
2022/03/28 08:14:48;;;;;;;38.65;19.88;;;;;;;6.82;71.17;101197.16;8594845;33;20848;-73
2022/03/28 08:19:51;;;;;;;41.33;19.13;;;;;;;7.22;70.76;101188.88;8628450;33;20616;-74
2022/03/28 08:24:54;;;;;;;40.10;19.67;;;;;;;7.30;70.12;101175.97;8599899;33;20186;-72
2022/03/28 08:29:58;;;;;;;37.42;17.58;;;;;;;7.58;69.69;101175.28;8599019;33;20183;-72
2022/03/28 08:35:03;;;;;;;39.45;18.25;;;;;;;7.47;68.96;101172.34;8597441;33;21381;-72
2022/03/28 08:40:08;;;;;;;45.47;19.52;;;;;;;7.52;68.77;101170.28;8591576;33;20185;-71
2022/03/28 08:45:14;;;;;;;37.17;19.23;;;;;;;7.52;69.50;101170.28;8593357;33;20668;-72
2022/03/28 08:50:18;;;;;;;45.00;21.25;;;;;;;7.69;68.42;101164.84;8590359;33;20175;-72
2022/03/28 08:55:22;;;;;;;39.03;19.45;;;;;;;8.20;68.54;101161.06;8592360;33;20540;-72
2022/03/28 09:00:27;;;;;;;43.65;21.73;;;;;;;8.74;66.79;101154.25;8590981;33;20429;-71
2022/03/28 09:05:33;;;;;;;43.72;20.02;;;;;;;7.29;70.94;101158.19;8646064;33;20180;-71
2022/03/28 09:10:37;;;;;;;38.13;18.90;;;;;;;7.77;69.61;101150.19;8656156;33;20131;-74
2022/03/28 09:15:52;;;;;;;46.13;22.83;;;;;;;7.70;70.56;101146.97;8656121;33;20283;-72
2022/03/28 09:20:58;;;;;;;40.72;21.20;;;;;;;8.60;67.83;101154.22;8665039;33;20194;-71
2022/03/28 09:26:08;;;;;;;44.58;21.35;;;;;;;8.55;67.39;101156.31;8655410;33;20975;-74
2022/03/28 09:31:28;;;;;;;44.35;23.00;;;;;;;8.90;67.38;101153.31;8651990;33;21913;-71
2022/03/28 09:36:45;;;;;;;38.40;20.17;;;;;;;9.59;64.68;101146.25;8599009;33;20438;-73
2022/03/28 09:42:00;;;;;;;36.55;19.58;;;;;;;9.64;63.21;101145.00;8596876;33;20444;-71
2022/03/28 09:47:09;;;;;;;39.72;19.73;;;;;;;9.48;66.58;101131.72;8599599;33;20402;-70
2022/03/28 09:52:14;;;;;;;36.85;20.35;;;;;;;10.89;62.13;101120.47;8604353;33;20505;-73
2022/03/28 09:57:21;;;;;;;40.10;23.35;;;;;;;11.26;59.94;101111.53;8615578;33;20810;-72
2022/03/28 10:02:27;;;;;;;34.95;19.67;;;;;;;12.28;57.69;101102.16;8600184;33;20395;-72
2022/03/28 10:07:32;;;;;;;37.50;20.15;;;;;;;12.63;56.33;101086.94;8598986;33;20140;-72
2022/03/28 10:12:35;;;;;;;36.17;21.13;;;;;;;12.95;55.19;101087.94;8597696;33;20995;-72
2022/03/28 10:17:41;;;;;;;39.88;22.08;;;;;;;13.48;54.20;101076.50;8598213;33;20442;-71
2022/03/28 10:22:50;;;;;;;31.50;18.40;;;;;;;13.84;53.36;101075.25;8601796;33;20456;-71
2022/03/28 10:27:55;;;;;;;36.15;19.83;;;;;;;13.23;53.70;101066.81;8604700;33;20287;-72
2022/03/28 10:33:11;;;;;;;42.80;21.05;;;;;;;14.06;53.52;101059.94;8603278;33;20427;-73
2022/03/28 10:38:15;;;;;;;39.70;21.10;;;;;;;13.53;52.90;101055.38;8608737;33;20178;-72
2022/03/28 10:43:19;;;;;;;37.50;19.15;;;;;;;14.29;50.98;101050.75;8615427;33;21118;-72
2022/03/28 10:48:38;;;;;;;37.15;19.67;;;;;;;14.45;51.12;101055.69;8607419;33;20233;-72
2022/03/28 10:53:43;;;;;;;34.38;18.95;;;;;;;14.82;50.12;101041.66;8608683;33;20438;-72
2022/03/28 10:58:51;;;;;;;39.20;19.65;;;;;;;15.25;50.64;101038.66;8609275;33;20982;-72
2022/03/28 11:04:03;;;;;;;39.75;19.80;;;;;;;15.72;48.52;101029.06;8612350;33;20583;-72
2022/03/28 11:09:06;;;;;;;34.80;19.42;;;;;;;16.61;47.43;101020.66;8621429;33;20182;-72
2022/03/28 11:14:12;;;;;;;35.35;19.63;;;;;;;17.13;46.30;101012.84;8622111;33;20556;-72
2022/03/28 11:19:29;;;;;;;39.97;18.30;;;;;;;17.48;44.86;101012.06;8620951;33;20535;-72
2022/03/28 11:24:48;;;;;;;36.63;19.42;;;;;;;16.86;46.60;101000.13;8620760;33;21273;-72
2022/03/28 11:30:00;;;;;;;40.45;18.02;;;;;;;16.87;45.59;100993.72;8615838;33;20630;-72
2022/03/28 11:35:09;;;;;;;37.85;18.85;;;;;;;17.53;44.43;100990.72;8609453;33;20487;-72
2022/03/28 11:40:12;;;;;;;30.85;17.55;;;;;;;17.15;45.45;100992.72;8615745;33;20447;-71
2022/03/28 11:45:18;;;;;;;30.88;16.45;;;;;;;18.41;42.65;100977.16;8609545;33;20452;-73
2022/03/28 11:50:23;;;;;;;31.58;16.50;;;;;;;18.97;41.38;100959.38;8605063;33;20218;-73
2022/03/28 11:55:29;;;;;;;29.17;16.65;;;;;;;19.08;41.55;100950.06;8605192;33;21487;-73
2022/03/28 12:00:32;;;;;;;29.58;15.65;;;;;;;17.87;42.16;100957.38;8602005;33;20648;-73
2022/03/28 12:05:39;;;;;;;25.08;14.63;;;;;;;17.68;42.75;100936.69;8599795;33;20641;-72
2022/03/28 12:10:46;;;;;;;23.60;15.15;;;;;;;19.11;41.06;100935.25;8599179;33;20198;-72
2022/03/28 12:15:52;;;;;;;25.65;13.88;;;;;;;19.63;39.61;100924.94;8600978;33;20504;-73
2022/03/28 12:20:57;;;;;;;24.13;13.43;;;;;;;20.12;38.29;100905.81;8599137;33;20131;-73
2022/03/28 12:26:04;;;;;;;23.05;13.55;;;;;;;19.93;37.83;100908.06;8594031;33;20187;-73
2022/03/28 12:31:09;;;;;;;22.60;13.15;;;;;;;19.27;38.67;100897.16;8597102;33;20188;-73
2022/03/28 12:36:22;;;;;;;26.60;14.10;;;;;;;19.08;39.80;100890.16;8597894;33;21045;-73
2022/03/28 12:41:26;;;;;;;24.38;13.43;;;;;;;20.45;38.18;100883.06;8599344;33;20471;-73
2022/03/28 12:46:29;;;;;;;24.92;13.77;;;;;;;20.89;37.29;100874.28;8597264;33;21198;-73
2022/03/28 12:51:35;;;;;;;22.98;13.18;;;;;;;20.07;37.26;100861.00;8599090;33;21080;-72
2022/03/28 12:56:46;;;;;;;24.90;13.63;;;;;;;20.12;37.75;100864.91;8595690;33;20608;-73
2022/03/28 13:01:50;;;;;;;26.33;15.13;;;;;;;19.86;38.48;100853.41;8596356;33;20556;-73
2022/03/28 13:07:03;;;;;;;28.42;14.18;;;;;;;19.39;38.90;100848.63;8593141;33;20469;-73
2022/03/28 13:12:09;;;;;;;22.45;13.13;;;;;;;20.38;36.90;100836.53;8592023;33;20158;-72
2022/03/28 13:17:18;;;;;;;26.17;13.82;;;;;;;21.75;35.70;100817.59;8631075;33;20149;-72
2022/03/28 13:22:27;;;;;;;23.95;14.05;;;;;;;22.67;33.75;100809.78;8659156;33;20687;-71
2022/03/28 13:32:52;;;;;;;23.73;13.57;;;;;;;23.73;32.57;100795.34;8661302;33;20300;-72
2022/03/28 13:37:59;;;;;;;24.55;14.32;;;;;;;23.66;32.09;100781.59;8659971;33;20265;-72
2022/03/28 13:43:03;;;;;;;28.88;13.73;;;;;;;23.17;32.59;100799.75;8656581;33;20180;-72
2022/03/28 13:48:09;;;;;;;20.67;12.50;;;;;;;23.97;32.02;100786.66;8656823;33;21843;-72
2022/03/28 13:53:15;;;;;;;23.52;13.15;;;;;;;24.01;31.99;100770.63;8655619;33;20416;-72
2022/03/28 13:58:18;;;;;;;20.55;12.57;;;;;;;23.27;32.19;100771.19;8653719;33;20269;-72
2022/03/28 14:03:21;;;;;;;21.60;12.93;;;;;;;23.97;31.55;100767.47;8657258;33;20154;-72
2022/03/28 14:08:26;;;;;;;21.83;12.65;;;;;;;24.83;30.63;100768.81;8666821;33;20519;-72
2022/03/28 14:13:29;;;;;;;20.20;12.43;;;;;;;24.69;30.81;100752.31;8656112;33;20152;-72
2022/03/28 14:18:32;;;;;;;21.38;12.52;;;;;;;23.63;32.33;100752.66;8658366;33;20233;-71
2022/03/28 14:23:36;;;;;;;21.85;12.68;;;;;;;22.43;33.93;100745.28;8659674;33;20956;-72
2022/03/28 14:28:40;;;;;;;20.88;12.18;;;;;;;22.05;33.63;100741.88;8659118;33;20412;-72
2022/03/28 14:33:43;;;;;;;22.05;13.15;;;;;;;20.36;36.41;100740.38;8658035;33;20190;-71
2022/03/28 14:38:47;;;;;;;18.95;11.30;;;;;;;20.78;35.73;100744.50;8657298;33;20182;-71
2022/03/28 14:43:50;;;;;;;21.95;12.15;;;;;;;20.94;35.73;100744.38;8665890;33;20496;-71
2022/03/28 14:49:03;;;;;;;22.00;12.35;;;;;;;20.96;36.46;100730.56;8662091;32;20188;-71
2022/03/28 14:54:09;;;;;;;21.88;11.02;;;;;;;19.46;36.98;100736.09;8610202;33;20408;-71
2022/03/28 14:59:13;;;;;;;22.48;10.68;;;;;;;18.81;38.60;100728.00;8614718;33;20450;-71
2022/03/28 15:04:16;;;;;;;19.65;10.93;;;;;;;17.30;41.15;100726.09;8618271;33;20166;-70
2022/03/28 15:09:21;;;;;;;20.58;10.77;;;;;;;18.51;39.36;100721.31;8620488;33;20188;-70
2022/03/28 15:14:24;;;;;;;22.05;10.40;;;;;;;19.07;38.96;100714.22;8620530;33;20922;-71
2022/03/28 15:19:28;;;;;;;18.88;9.40;;;;;;;18.45;39.43;100708.41;8613354;33;21200;-71
2022/03/28 15:24:32;;;;;;;17.00;8.15;;;;;;;18.26;38.99;100695.97;8661912;33;21746;-71
2022/03/28 15:29:44;;;;;;;15.80;8.15;;;;;;;18.85;37.93;100694.00;8674973;33;20201;-71
2022/03/28 15:34:47;;;;;;;17.35;8.82;;;;;;;19.10;37.82;100693.97;8671643;33;20933;-71
2022/03/28 15:39:52;;;;;;;18.48;9.30;;;;;;;18.12;39.03;100702.91;8665187;33;20245;-71
2022/03/28 15:44:55;;;;;;;14.38;7.97;;;;;;;18.18;38.40;100698.66;8670442;33;20751;-70
2022/03/28 15:50:04;;;;;;;13.95;6.30;;;;;;;17.66;38.22;100689.66;8660598;33;20472;-71
2022/03/28 15:55:13;;;;;;;12.70;5.28;;;;;;;17.66;38.29;100688.78;8665479;33;20497;-71
2022/03/28 16:00:17;;;;;;;12.55;6.03;;;;;;;17.65;38.91;100682.50;8659182;33;20236;-71
2022/03/28 16:05:23;;;;;;;11.60;6.05;;;;;;;17.41;39.77;100688.66;8659915;33;20902;-71
2022/03/28 16:10:27;;;;;;;10.90;6.13;;;;;;;17.38;39.54;100675.41;8657840;33;20565;-71
2022/03/28 16:15:31;;;;;;;10.98;6.53;;;;;;;17.06;40.08;100672.47;8662168;33;20449;-71
2022/03/28 16:20:36;;;;;;;13.40;7.00;;;;;;;17.03;39.49;100670.94;8659555;33;20479;-71
2022/03/28 16:25:40;;;;;;;12.13;7.05;;;;;;;16.84;39.97;100668.41;8661120;33;20157;-71
2022/03/28 16:30:43;;;;;;;13.60;6.97;;;;;;;16.59;40.49;100658.25;8662494;33;22723;-71
2022/03/28 16:35:47;;;;;;;12.00;6.75;;;;;;;16.07;41.38;100651.78;8662523;33;21032;-71
2022/03/28 16:40:55;;;;;;;13.80;7.43;;;;;;;16.06;41.59;100656.34;8661642;33;20444;-71
2022/03/28 16:45:58;;;;;;;13.70;8.45;;;;;;;15.92;42.59;100635.22;8660012;33;20608;-71
2022/03/28 16:51:01;;;;;;;16.15;8.65;;;;;;;15.64;43.03;100642.53;8660749;33;20271;-72
2022/03/28 16:56:07;;;;;;;13.50;8.57;;;;;;;15.06;44.38;100630.09;8660809;33;20661;-71
2022/03/28 17:01:11;;;;;;;15.70;8.00;;;;;;;14.89;44.71;100625.41;8662121;33;20472;-70
2022/03/28 17:06:16;;;;;;;22.33;9.30;;;;;;;14.60;45.71;100627.19;8660565;33;20451;-72
2022/03/28 17:11:20;;;;;;;13.52;7.90;;;;;;;14.13;46.64;100618.09;8653379;33;20396;-72
2022/03/28 17:16:26;;;;;;;16.55;9.00;;;;;;;13.77;47.87;100611.50;8656782;33;20403;-72
2022/03/28 17:21:38;;;;;;;13.95;8.85;;;;;;;13.43;48.93;100625.34;8657603;33;20995;-72
2022/03/28 17:26:43;;;;;;;17.92;10.07;;;;;;;12.94;50.27;100622.41;8658951;33;20429;-72
2022/03/28 17:31:46;;;;;;;20.48;9.52;;;;;;;12.60;50.80;100601.09;8660206;33;20635;-73
2022/03/28 17:36:49;;;;;;;16.73;8.68;;;;;;;12.21;51.23;100612.56;8652733;33;20193;-71
2022/03/28 17:41:54;;;;;;;17.65;8.73;;;;;;;11.78;52.21;100608.91;8652538;33;20609;-72
2022/03/28 17:46:58;;;;;;;19.50;9.35;;;;;;;11.59;53.35;100601.47;8628810;32;20428;-71
2022/03/28 17:52:01;;;;;;;17.98;10.35;;;;;;;11.39;53.81;100599.59;8653943;33;20421;-70
2022/03/28 17:57:06;;;;;;;22.33;10.68;;;;;;;11.20;54.35;100592.13;8659355;33;20409;-71
2022/03/28 18:02:10;;;;;;;22.38;10.73;;;;;;;11.04;54.92;100600.53;8656553;33;20585;-71
2022/03/28 18:07:14;;;;;;;23.02;10.48;;;;;;;10.84;55.40;100607.50;8656604;33;20413;-71
2022/03/28 18:12:18;;;;;;;19.88;10.85;;;;;;;10.74;55.75;100607.34;8656692;33;21891;-72
2022/03/28 18:17:22;;;;;;;21.70;11.00;;;;;;;10.58;56.47;100613.06;8655371;33;20420;-72
2022/03/28 18:22:25;;;;;;;24.45;12.70;;;;;;;10.49;56.30;100615.63;8635876;33;20423;-72
2022/03/28 18:27:30;;;;;;;25.10;12.63;;;;;;;10.35;57.03;100620.22;8664753;33;21083;-71
2022/03/28 18:32:33;;;;;;;25.50;12.57;;;;;;;10.26;57.48;100625.44;8673472;33;20490;-72
2022/03/28 18:37:44;;;;;;;21.83;11.80;;;;;;;10.13;57.77;100625.50;8650891;33;20654;-74
2022/03/28 18:42:48;;;;;;;25.73;12.82;;;;;;;10.00;58.51;100628.25;8677853;33;20253;-73
2022/03/28 18:47:52;;;;;;;25.27;13.43;;;;;;;9.91;58.84;100637.84;8673881;33;20413;-72
2022/03/28 18:52:55;;;;;;;23.73;13.65;;;;;;;9.81;59.14;100625.19;8679763;33;20189;-73
2022/03/28 18:57:59;;;;;;;27.45;13.63;;;;;;;9.71;59.47;100633.94;8679451;33;20155;-73
2022/03/28 19:03:03;;;;;;;31.50;14.50;;;;;;;9.70;59.74;100631.34;8678856;33;21045;-76
2022/03/28 19:08:10;;;;;;;32.85;14.02;;;;;;;9.57;60.00;100636.78;8687755;33;20392;-72
2022/03/28 19:13:14;;;;;;;45.53;17.55;;;;;;;9.54;60.21;100633.44;8681320;33;20154;-73
2022/03/28 19:18:17;;;;;;;26.00;15.38;;;;;;;9.49;60.91;100631.94;8677827;33;20968;-73
2022/03/28 19:23:21;;;;;;;31.42;16.52;;;;;;;9.34;61.28;100622.31;8665180;33;20453;-71
2022/03/28 19:28:25;;;;;;;35.35;16.50;;;;;;;9.36;61.43;100620.41;8665641;33;20348;-72
2022/03/28 19:33:28;;;;;;;33.25;16.83;;;;;;;9.29;61.95;100603.88;8667318;33;21044;-72
2022/03/28 19:38:31;;;;;;;34.20;16.05;;;;;;;9.28;61.68;100606.69;8672491;33;20415;-72
2022/03/28 19:43:36;;;;;;;30.92;16.27;;;;;;;9.25;61.79;100606.91;8668269;33;20420;-73
2022/03/28 19:48:42;;;;;;;33.85;17.40;;;;;;;9.20;61.91;100606.38;8665566;33;20186;-72
2022/03/28 19:53:45;;;;;;;36.40;17.65;;;;;;;9.01;62.36;100598.81;8664269;33;21428;-73
2022/03/28 19:58:49;;;;;;;37.63;17.45;;;;;;;8.75;63.40;100609.53;8663590;33;20190;-72
2022/03/28 20:03:53;;;;;;;38.35;19.23;;;;;;;8.75;63.30;100604.19;8659008;33;20857;-72
2022/03/28 20:08:56;;;;;;;33.75;18.05;;;;;;;8.76;63.74;100597.84;8661874;33;20134;-73
2022/03/28 20:14:04;;;;;;;39.13;19.27;;;;;;;8.79;63.86;100594.94;8657064;33;20247;-73
2022/03/28 20:19:07;;;;;;;37.83;19.08;;;;;;;8.88;63.88;100593.44;8637092;33;21490;-73
2022/03/28 20:24:10;;;;;;;39.42;18.67;;;;;;;8.79;64.23;100588.75;8665843;33;20443;-73
2022/03/28 20:29:15;;;;;;;40.72;18.30;;;;;;;8.79;63.77;100573.53;8663185;33;20464;-74
2022/03/28 20:34:19;;;;;;;40.85;19.65;;;;;;;8.65;63.97;100581.69;8662811;33;20213;-74
2022/03/28 20:39:23;;;;;;;38.85;19.25;;;;;;;8.50;64.54;100572.91;8666560;33;20189;-73
2022/03/28 20:44:27;;;;;;;39.55;19.23;;;;;;;8.47;64.72;100578.44;8663882;33;20332;-73
2022/03/28 20:49:30;;;;;;;39.95;20.08;;;;;;;8.34;65.33;100582.94;8659147;33;20521;-73
2022/03/28 20:54:33;;;;;;;42.90;20.73;;;;;;;8.23;66.12;100580.09;8660645;33;20827;-73
2022/03/28 20:59:40;;;;;;;41.60;21.20;;;;;;;8.18;66.18;100578.59;8661940;33;20412;-72
2022/03/28 21:04:45;;;;;;;39.83;19.33;;;;;;;8.18;66.27;100593.81;8665308;33;20156;-71
2022/03/28 21:09:53;;;;;;;40.25;20.95;;;;;;;8.12;65.98;100584.38;8665368;33;20462;-72
2022/03/28 21:14:58;;;;;;;42.80;20.02;;;;;;;8.04;66.48;100577.84;8660209;33;20448;-73
2022/03/28 21:20:03;;;;;;;40.15;20.42;;;;;;;8.03;66.64;100573.44;8660256;33;20467;-73
2022/03/28 21:25:07;;;;;;;43.15;21.38;;;;;;;8.02;66.66;100566.38;8660046;33;20683;-73
2022/03/28 21:30:12;;;;;;;40.42;20.83;;;;;;;7.92;66.62;100571.47;8659902;33;21104;-73
2022/03/28 21:35:15;;;;;;;42.35;20.95;;;;;;;7.83;66.77;100566.75;8659822;33;20430;-73
2022/03/28 21:40:18;;;;;;;43.45;21.33;;;;;;;7.76;66.82;100566.28;8659464;33;20456;-73
2022/03/28 21:45:23;;;;;;;42.13;21.05;;;;;;;7.69;67.21;100565.84;8655344;33;20428;-74
2022/03/28 21:50:26;;;;;;;45.97;21.83;;;;;;;7.60;68.00;100558.44;8659003;33;20427;-72
2022/03/28 21:55:30;;;;;;;42.50;21.95;;;;;;;7.54;67.75;100552.63;8656807;33;20395;-73
2022/03/28 22:01:30;;;;;;;44.58;22.10;;;;;;;7.46;68.04;100561.13;8655808;33;20397;-72
2022/03/28 22:06:33;;;;;;;42.53;21.63;;;;;;;7.33;68.35;100561.09;8654663;33;20554;-73
2022/03/28 22:11:39;;;;;;;46.53;22.85;;;;;;;7.29;68.57;100548.88;8654511;33;20600;-73
2022/03/28 22:16:43;;;;;;;45.40;21.67;;;;;;;7.26;68.50;100549.94;8653085;33;20147;-72
2022/03/28 22:21:46;;;;;;;51.30;23.02;;;;;;;7.16;68.37;100547.94;8654395;33;20413;-72
2022/03/28 22:26:49;;;;;;;44.20;21.65;;;;;;;7.06;68.91;100547.69;8659858;33;20434;-72
2022/03/28 22:31:54;;;;;;;41.80;21.40;;;;;;;7.12;68.89;100541.09;8659523;33;20504;-73
2022/03/28 22:36:57;;;;;;;45.17;21.92;;;;;;;7.12;69.19;100544.63;8657258;33;20150;-73
2022/03/28 22:42:00;;;;;;;48.45;23.48;;;;;;;7.06;69.19;100539.69;8661016;33;20154;-73
2022/03/28 22:47:05;;;;;;;47.35;22.17;;;;;;;6.94;69.44;100538.66;8659643;33;20142;-73
2022/03/28 22:52:09;;;;;;;49.78;24.00;;;;;;;6.87;69.88;100534.66;8659886;33;20185;-72
2022/03/28 22:57:12;;;;;;;46.20;21.55;;;;;;;6.87;70.03;100533.75;8659829;33;20454;-73
2022/03/28 23:02:16;;;;;;;47.60;22.85;;;;;;;6.78;70.10;100535.19;8661213;33;20452;-73
2022/03/28 23:07:20;;;;;;;51.05;24.98;;;;;;;6.75;70.20;100530.06;8635553;33;20149;-72
2022/03/28 23:12:23;;;;;;;43.55;22.63;;;;;;;6.61;70.90;100529.09;8660562;33;20182;-72
2022/03/28 23:17:29;;;;;;;46.72;22.58;;;;;;;6.65;71.19;100518.22;8660953;33;21076;-72
2022/03/28 23:22:32;;;;;;;48.80;23.65;;;;;;;6.84;71.13;100521.47;8658868;33;20486;-72